• Join FlightAware (Why Join?)
  • Login
  • US Flag 
02:56AM EDT


 

Airport Tracker/Info


-or-


 

Live Flight TrackerFlight Track Log ✈ N762NC ✈ 14-Oct-2013 ✈ KDTW - KSTL

Flight Track Log - Related Links

Times and Time Zones

All times are in EDT time to prevent confusion due to time zone crossing. See the N762NC flight status page for this flight to view local times or setup timezone preferences in your user account.

Time Position Orientation Groundspeed Altitude Reporting Facility
EDT Latitude Longitude Course Direction KTS MPH feet Rate Location/Type
05:26PM 42.2014 -83.3722 214° Southwest 168 193 1,400  Level Cleveland Center
05:27PM 42.1714 -83.3975 212° Southwest 217 250 2,400 2,280 Climbing Cleveland Center
05:28PM 42.1150 -83.4406 210° Southwest 232 267 5,400 2,220 Climbing Cleveland Center
05:29PM 41.9892 -83.8574 209° Southwest  Level Estimated
05:29PM 42.0522 -83.4881 209° Southwest 255 293 7,000  Level Cleveland Center
05:30PM 41.8815 -83.8787 188° South  Level FlightAware Approximate
05:30PM 41.9889 -83.5511 217° Southwest 278 320 9,600  Level Cleveland Center
05:31PM 41.8266 -84.0050 214° Southwest  Level Estimated
05:31PM 41.9225 -83.6175 217° Southwest 291 335 10,900  Level Cleveland Center
05:32PM 41.8397 -83.6842 211° Southwest 343 395 12,300 1,920 Climbing Cleveland Center
05:33PM 41.7353 -83.7658 210° Southwest 361 415 14,900 2,160 Climbing Cleveland Center
05:34PM 41.6475 -83.8425 213° Southwest 373 429 16,800 1,560 Climbing Cleveland Center
05:35PM 41.5597 -83.9217 214° Southwest 380 437 18,200 1,500 Climbing Cleveland Center
05:36PM 41.4689 -84.0025 214° Southwest 390 449 20,000 1,500 Climbing Cleveland Center
05:37PM 41.3783 -84.0869 215° Southwest 397 457 21,300 1,440 Climbing Cleveland Center
05:38PM 41.2711 -84.1858 215° Southwest 408 470 23,000 1,440 Climbing Cleveland Center
05:39PM 41.1747 -84.2767 215° Southwest 420 483 24,300 1,140 Climbing Cleveland Center
05:40PM 41.1278 -84.4175 246° West 422 486 25,400 1,140 Climbing Cleveland Center
05:41PM 41.1019 -84.5692 257° West 422 486 26,700 1,200 Climbing Cleveland Center
05:42PM 41.0889 -84.7206 264° West 415 478 28,000 600 Climbing Cleveland Center
05:43PM 41.0603 -84.9058 258° West 423 487 28,000  Level Cleveland Center
05:44PM 41.0106 -85.0567 246° West 440 506 28,000  Level Cleveland Center
05:45PM 40.9778 -85.2056 254° West 424 488 28,000  Level Cleveland Center
05:46PM 40.9564 -85.3544 259° West 414 476 28,000  Level Cleveland Center
05:47PM 40.9333 -85.5042 259° West 413 475 28,000  Level Cleveland Center
05:48PM 40.9133 -85.6547 260° West 414 476 28,000  Level Cleveland Center
05:49PM 40.8931 -85.8061 260° West 416 479 28,000  Level Cleveland Center
05:50PM 40.8681 -85.9872 260° West 416 479 28,000  Level Cleveland Center
05:51PM 40.8550 -86.1383 264° West 414 476 28,000  Level Cleveland Center
05:53PM 40.8439 -86.3442 266° West 418 481 28,000  Level Kansas City Center
05:54PM 40.8328 -86.5250 265° West 414 476 28,000  Level Kansas City Center
05:55PM 40.8175 -86.6531 261° West 415 478 28,000  Level Chicago Center
05:56PM 40.7886 -86.8189 257° West 411 473 28,000  Level Chicago Center
05:57PM 40.7592 -86.9669 255° West 415 478 28,000  Level Chicago Center
05:58PM 40.7317 -87.1133 256° West 413 475 28,000  Level Chicago Center
05:59PM 40.7044 -87.2606 256° West 414 476 28,000  Level Chicago Center
06:00PM 40.6842 -87.4097 260° West 415 478 28,000  Level Chicago Center
06:01PM 40.6689 -87.5875 264° West 408 470 28,000  Level Chicago Center
06:02PM 40.6581 -87.7394 265° West 416 479 28,000  Level Chicago Center
06:03PM 40.6372 -87.8875 260° West 412 474 28,000  Level Chicago Center
06:04PM 40.5947 -88.0286 248° West 413 475 28,000  Level Chicago Center
06:05PM 40.5108 -88.1264 222° Southwest 413 475 28,000  Level Chicago Center
06:06PM 40.3881 -88.2183 210° Southwest 425 489 28,000  Level Chicago Center
06:07PM 40.2983 -88.3156 220° Southwest 420 483 28,000  Level Chicago Center
06:08PM 40.1903 -88.3783 204° Southwest 432 497 28,000 -300 Level Chicago Center
06:09PM 40.0633 -88.4256 196° South 434 499 27,400 -720 Descending Chicago Center
06:10PM 39.9472 -88.4678 196° South 432 497 26,600 -840 Descending Chicago Center
06:11PM 39.8333 -88.5142 197° South 430 495 25,700 -900 Descending Chicago Center
06:12PM 39.7297 -88.5911 210° Southwest 425 489 24,800 -780 Descending Kansas City Center
06:13PM 39.6403 -88.6892 220° Southwest 418 481 24,100 -420 Descending Kansas City Center
06:14PM 39.5519 -88.7881 221° Southwest 418 481 24,000 -60 Descending Kansas City Center
06:16PM 39.4619 -88.8789 218° Southwest 412 474 24,000  Level Kansas City Center
06:17PM 39.3603 -88.9592 211° Southwest 406 467 24,000  Level Kansas City Center
06:18PM 39.2614 -89.0303 209° Southwest 406 467 24,000 -1,560 Level Kansas City Center
06:19PM 39.1478 -89.1103 209° Southwest 403 464 20,900 -3,060 Descending Kansas City Center
06:20PM 39.0747 -89.2350 233° Southwest 408 470 17,800 -2,640 Descending Kansas City Center
06:21PM 39.0525 -89.3731 258° West 394 453 15,500 -1,380 Descending Kansas City Center
06:22PM 39.0256 -89.5078 256° West 393 452 15,000 -660 Descending Kansas City Center
06:23PM 38.9894 -89.6531 252° West 397 457 14,200 -1,800 Descending Kansas City Center
06:24PM 38.9597 -89.7828 254° West 386 444 11,400 -2,100 Descending Kansas City Center
06:25PM 38.9256 -89.9139 252° West 367 422 9,900 -1,020 Descending Kansas City Center
06:26PM 38.8889 -89.9806 235° Southwest 298 343 9,400 -840 Descending Kansas City Center
06:27PM 38.8356 -90.0744 234° Southwest 275 316 8,200 -720 Descending Kansas City Center
06:28PM 38.8100 -90.1617 249° West 268 308 8,000 -360 Descending Kansas City Center
06:29PM 38.8214 -90.2533 279° West 280 322 7,500 -1,080 Descending Kansas City Center
06:30PM 38.8525 -90.3431 294° West 280 322 5,800 -1,200 Descending Kansas City Center
06:31PM 38.8858 -90.4303 296° West 278 320 5,100 -480 Descending Kansas City Center
06:32PM 38.9217 -90.5339 294° West 272 313 4,900 -360 Descending Kansas City Center
06:33PM 38.9183 -90.6186 267° West 270 311 4,400 -480 Descending Kansas City Center
06:34PM 38.8625 -90.6094 173° South 231 266 4,000 -660 Descending Kansas City Center
06:35PM 38.8281 -90.5514 127° Southeast 213 245 3,100 -960 Descending Kansas City Center
06:36PM 38.8017 -90.4953 121° Southeast 199 229 2,100 -900 Descending Kansas City Center
06:37PM 38.7789 -90.4489 122° Southeast 175 201 1,300 -840 Descending Kansas City Center
06:38PM 38.7564 -90.4028 122° Southeast 143 165 500 -780 Descending Kansas City Center